Time;durP1;ratioP1;P1;durP2;ratioP2;P2;SDS_P1;SDS_P2;PMS_P1;PMS_P2;Temp;Humidity;BMP_temperature;BMP_pressure;BME280_temperature;BME280_humidity;BME280_pressure;Samples;Min_cycle;Max_cycle;Signal;HPM_P1;HPM_P2
2023/04/24 00:02:12;;;;;;;2.47;1.60;;;11.50;99.90;;;12.02;100.00;96854.31;4965111;28;20476;-77
2023/04/24 00:04:44;;;;;;;2.80;1.30;;;11.50;99.90;;;12.01;100.00;96851.91;4965912;28;20457;-78
2023/04/24 00:07:16;;;;;;;2.30;1.40;;;11.40;99.90;;;12.02;100.00;96859.53;4964908;28;20465;-78
2023/04/24 00:09:46;;;;;;;1.73;1.57;;;11.50;99.90;;;11.98;100.00;96857.59;4965110;28;20850;-78
2023/04/24 00:12:17;;;;;;;3.70;2.00;;;11.40;99.90;;;11.97;100.00;96862.06;4965251;28;20468;-78
2023/04/24 00:14:47;;;;;;;1.53;1.20;;;11.40;99.90;;;11.95;100.00;96873.75;4965152;28;20551;-79
2023/04/24 00:17:19;;;;;;;1.20;1.10;;;11.40;99.90;;;11.93;100.00;96870.56;4961063;28;21042;-79
2023/04/24 00:19:51;;;;;;;3.07;1.73;;;11.40;99.90;;;11.95;100.00;96868.53;4960650;28;20886;-78
2023/04/24 00:22:22;;;;;;;1.40;1.30;;;11.40;99.90;;;11.95;100.00;96879.81;4962913;28;20480;-78
2023/04/24 00:24:53;;;;;;;4.17;1.70;;;11.40;99.90;;;11.90;100.00;96878.88;4964632;28;21110;-77
2023/04/24 00:27:22;;;;;;;1.53;1.30;;;11.40;99.90;;;11.88;100.00;96875.69;4964791;28;20482;-78
2023/04/24 00:29:51;;;;;;;3.00;1.10;;;11.30;99.90;;;11.94;100.00;96885.28;4964554;28;20492;-78
2023/04/24 00:32:21;;;;;;;2.47;1.23;;;11.30;99.90;;;11.94;100.00;96880.03;4964235;28;20493;-77
2023/04/24 00:34:51;;;;;;;1.70;1.07;;;11.30;99.90;;;11.94;100.00;96886.06;4965531;28;20501;-78
2023/04/24 00:37:22;;;;;;;1.33;0.97;;;11.40;99.90;;;11.96;100.00;96885.84;4965918;28;20469;-78
2023/04/24 00:39:53;;;;;;;4.20;0.90;;;11.40;99.90;;;11.94;100.00;96882.66;4965231;28;20476;-78
2023/04/24 00:42:23;;;;;;;1.10;1.00;;;11.30;99.90;;;11.97;100.00;96884.81;4963700;28;20468;-78
2023/04/24 00:44:52;;;;;;;0.90;0.80;;;11.30;99.90;;;11.92;100.00;96884.69;4964410;28;21996;-78
2023/04/24 00:47:22;;;;;;;2.43;0.90;;;11.30;99.90;;;11.92;100.00;96879.44;4964897;28;20892;-79
2023/04/24 00:49:52;;;;;;;2.50;0.90;;;11.30;99.90;;;11.95;100.00;96892.91;4964101;28;20461;-77
2023/04/24 00:52:25;;;;;;;2.50;0.83;;;11.30;99.90;;;11.92;100.00;96892.56;4963383;28;20461;-78
2023/04/24 00:54:54;;;;;;;2.90;0.80;;;11.30;99.90;;;11.91;100.00;96881.25;4959412;28;21052;-78
2023/04/24 00:57:25;;;;;;;1.47;0.90;;;11.30;99.90;;;11.93;100.00;96876.63;4961648;28;20489;-78
2023/04/24 00:59:56;;;;;;;1.10;1.00;;;11.20;99.90;;;11.90;100.00;96873.66;4962332;28;20467;-78
2023/04/24 01:02:26;;;;;;;0.80;0.80;;;11.20;99.90;;;11.89;100.00;96880.69;4959634;28;20845;-78
2023/04/24 01:04:56;;;;;;;2.10;0.70;;;11.20;99.90;;;11.93;100.00;96878.44;4963189;28;20461;-78
2023/04/24 01:07:28;;;;;;;3.00;1.10;;;11.20;99.90;;;11.89;100.00;96875.47;4962295;28;20461;-77
2023/04/24 01:09:59;;;;;;;0.90;0.80;;;11.20;99.90;;;11.87;100.00;96880.13;4962315;28;20476;-79
2023/04/24 01:12:29;;;;;;;0.80;0.80;;;11.20;99.90;;;11.85;100.00;96874.31;4958880;28;20468;-78
2023/04/24 01:14:59;;;;;;;1.00;0.90;;;11.20;99.90;;;11.79;100.00;96885.69;4961696;28;20491;-77
2023/04/24 01:17:29;;;;;;;1.00;0.87;;;11.10;99.90;;;11.74;100.00;96887.34;4962551;28;20465;-78
2023/04/24 01:20:00;;;;;;;0.90;0.80;;;11.10;99.90;;;11.72;100.00;96892.84;4960889;28;20463;-77
2023/04/24 01:22:32;;;;;;;0.90;0.80;;;11.10;99.90;;;11.59;100.00;96899.00;4962564;28;20461;-78
2023/04/24 01:25:02;;;;;;;0.80;0.80;;;11.00;99.90;;;11.59;100.00;96893.00;4944524;28;20467;-78
2023/04/24 01:27:32;;;;;;;0.93;0.83;;;10.90;99.90;;;11.63;100.00;96894.91;4959468;28;20467;-78
2023/04/24 01:30:02;;;;;;;15.00;1.03;;;11.00;99.90;;;11.61;100.00;96896.97;4958663;28;20545;-78
2023/04/24 01:32:31;;;;;;;1.20;1.10;;;11.00;99.90;;;11.57;100.00;96898.44;4961437;28;20546;-78
2023/04/24 01:35:01;;;;;;;1.00;0.90;;;11.00;99.90;;;11.57;100.00;96906.28;4962182;28;20583;-78
2023/04/24 01:37:33;;;;;;;0.80;0.80;;;10.90;99.90;;;11.59;100.00;96899.00;4960312;28;20465;-78
2023/04/24 01:40:03;;;;;;;1.50;0.83;;;10.90;99.90;;;11.56;100.00;96907.28;4960886;28;20488;-78
2023/04/24 01:42:33;;;;;;;1.00;0.90;;;10.90;99.90;;;11.49;100.00;96901.34;4960121;28;20460;-78
2023/04/24 01:45:06;;;;;;;1.50;1.00;;;10.80;99.90;;;11.50;100.00;96910.81;4961714;28;20826;-78
2023/04/24 01:47:35;;;;;;;1.00;0.93;;;10.80;99.90;;;11.51;100.00;96903.75;4961016;28;20557;-78
2023/04/24 01:50:11;;;;;;;0.90;0.80;;;10.90;99.90;;;11.51;100.00;96903.75;4958926;28;20461;-78
2023/04/24 01:52:42;;;;;;;7.93;1.37;;;10.80;99.90;;;11.53;100.00;96906.94;4958965;28;20468;-78
2023/04/24 01:55:12;;;;;;;1.10;1.00;;;10.90;99.90;;;11.51;100.00;96912.41;4962341;28;20489;-78
2023/04/24 01:57:42;;;;;;;1.93;1.30;;;10.80;99.90;;;11.48;100.00;96909.44;4962059;28;20481;-77
2023/04/24 02:00:14;;;;;;;2.10;1.50;;;10.90;99.90;;;11.28;100.00;96896.56;4960691;28;20527;-78
2023/04/24 02:02:44;;;;;;;1.30;1.20;;;10.70;99.90;;;11.30;100.00;96901.59;4944579;28;20469;-77
2023/04/24 02:05:15;;;;;;;1.30;1.20;;;10.60;99.90;;;11.29;100.00;96915.69;4960071;28;20590;-77
2023/04/24 02:07:46;;;;;;;2.00;1.17;;;10.70;99.90;;;11.29;100.00;96916.50;4960626;28;20535;-77
2023/04/24 02:10:15;;;;;;;2.03;1.10;;;10.70;99.90;;;11.24;100.00;96916.38;4958427;28;20468;-78
2023/04/24 02:12:45;;;;;;;2.57;1.40;;;10.60;99.90;;;11.28;100.00;96917.50;4960354;28;20741;-78
2023/04/24 02:15:16;;;;;;;4.40;1.27;;;10.60;99.90;;;11.22;100.00;96918.38;4961606;28;21543;-78
2023/04/24 02:17:47;;;;;;;1.40;1.20;;;10.60;99.90;;;11.21;100.00;96923.84;4959855;28;20483;-78
2023/04/24 02:20:17;;;;;;;1.27;1.17;;;10.60;99.90;;;11.20;100.00;96917.81;4957329;28;20457;-78
2023/04/24 02:22:48;;;;;;;1.47;1.20;;;10.60;99.90;;;11.16;100.00;96921.88;4959474;28;20475;-78
2023/04/24 02:25:18;;;;;;;2.40;1.50;;;10.50;99.90;;;11.10;100.00;96928.00;4960676;28;20468;-78
2023/04/24 02:27:48;;;;;;;1.80;1.47;;;10.50;99.90;;;11.10;100.00;96943.69;4962665;28;20990;-77
2023/04/24 02:30:17;;;;;;;2.27;1.27;;;10.50;99.90;;;11.04;100.00;96952.38;4963085;28;20974;-78
2023/04/24 02:32:46;;;;;;;1.83;1.53;;;10.40;99.90;;;11.07;100.00;96959.81;4959991;28;20766;-78
2023/04/24 02:35:18;;;;;;;2.07;1.40;;;10.40;99.90;;;11.06;100.00;96963.44;4963261;28;20496;-78
2023/04/24 02:37:50;;;;;;;1.93;1.73;;;10.40;99.90;;;10.94;100.00;96973.00;4963192;28;20470;-77
2023/04/24 02:40:21;;;;;;;1.60;1.50;;;10.30;99.90;;;10.97;100.00;96980.41;4962556;28;20510;-78
2023/04/24 02:42:51;;;;;;;2.80;1.30;;;10.30;99.90;;;10.94;100.00;96975.63;4963502;28;20499;-78
2023/04/24 02:45:20;;;;;;;2.23;1.63;;;10.30;99.90;;;10.91;100.00;96979.47;4962184;28;20544;-78
2023/04/24 02:47:50;;;;;;;1.70;1.37;;;10.20;99.90;;;10.89;100.00;96985.94;4962925;28;21172;-78
2023/04/24 02:50:20;;;;;;;2.10;1.60;;;10.20;99.90;;;10.83;100.00;96986.81;4962530;28;20484;-78
2023/04/24 02:52:52;;;;;;;1.70;1.60;;;10.20;99.90;;;10.86;100.00;96981.97;4963351;28;20523;-78
2023/04/24 02:55:23;;;;;;;2.50;1.47;;;10.20;99.90;;;10.81;100.00;96980.97;4960635;28;20932;-78
2023/04/24 02:57:54;;;;;;;2.87;1.30;;;10.10;99.90;;;10.85;100.00;96987.38;4960652;28;20457;-78
2023/04/24 03:00:25;;;;;;;2.10;1.40;;;10.10;99.90;;;10.87;100.00;96986.16;4961595;28;20464;-78
2023/04/24 03:02:55;;;;;;;1.63;1.53;;;10.10;99.90;;;10.88;100.00;96986.97;4958795;28;20464;-78
2023/04/24 03:05:27;;;;;;;5.43;1.60;;;10.10;99.90;;;10.87;100.00;96985.34;4960078;28;20476;-77
2023/04/24 03:07:58;;;;;;;8.73;3.73;;;10.10;99.90;;;10.82;100.00;96990.44;4958062;28;20484;-76
2023/04/24 03:10:27;;;;;;;3.87;2.43;;;10.10;99.90;;;10.80;100.00;96984.59;4961440;28;20512;-78
2023/04/24 03:12:58;;;;;;;1.70;1.47;;;10.10;99.90;;;10.78;100.00;96990.06;4960051;28;20556;-78
2023/04/24 03:15:28;;;;;;;2.33;1.53;;;10.10;99.90;;;10.71;100.00;96981.47;4958929;28;20495;-77
2023/04/24 03:17:58;;;;;;;4.13;1.73;;;10.00;99.90;;;10.71;100.00;96975.44;4962365;28;20551;-77
2023/04/24 03:20:28;;;;;;;1.67;1.57;;;10.00;99.90;;;10.65;100.00;96974.50;4962732;28;20464;-75
2023/04/24 03:23:00;;;;;;;1.97;1.60;;;10.00;99.90;;;10.58;100.00;96982.38;4962861;28;20954;-76
2023/04/24 03:25:29;;;;;;;2.93;1.80;;;9.90;99.90;;;10.55;100.00;96993.25;4964083;28;20576;-76
2023/04/24 03:27:59;;;;;;;2.53;1.90;;;9.90;99.90;;;10.48;100.00;96992.50;4966689;28;20484;-77
2023/04/24 03:30:29;;;;;;;2.27;1.60;;;9.80;99.90;;;10.47;100.00;96998.75;4967073;28;20504;-77
2023/04/24 03:32:58;;;;;;;2.60;1.87;;;9.70;99.90;;;10.40;100.00;97005.84;4967372;28;20474;-77
2023/04/24 03:35:29;;;;;;;3.60;1.70;;;9.70;99.90;;;10.39;100.00;97004.22;4966456;28;20464;-77
2023/04/24 03:38:00;;;;;;;6.60;2.17;;;9.70;99.90;;;10.38;100.00;97005.22;4967816;28;20469;-77
2023/04/24 03:40:30;;;;;;;2.60;2.37;;;9.70;99.90;;;10.38;100.00;97013.06;4961389;28;20528;-77
2023/04/24 03:43:00;;;;;;;3.83;1.80;;;9.70;99.90;;;10.40;100.00;97015.47;4960927;28;20472;-77
2023/04/24 03:45:30;;;;;;;2.17;1.97;;;9.70;99.90;;;10.36;100.00;97017.72;4961580;28;20558;-77
2023/04/24 03:48:00;;;;;;;3.03;2.50;;;9.60;99.90;;;10.35;100.00;97023.94;4958409;28;20539;-77
2023/04/24 03:50:30;;;;;;;3.40;2.30;;;9.60;99.90;;;10.35;100.00;97029.16;4956003;28;20471;-77
2023/04/24 03:53:01;;;;;;;3.50;2.50;;;9.70;99.90;;;10.25;100.00;97030.63;4956302;28;21060;-75
2023/04/24 03:55:32;;;;;;;5.03;2.80;;;9.70;99.90;;;10.29;100.00;97024.00;4958148;28;20473;-76
2023/04/24 03:58:02;;;;;;;6.13;2.93;;;9.60;99.90;;;10.29;100.00;97019.56;4943212;28;20833;-77
2023/04/24 04:00:33;;;;;;;2.00;1.90;;;9.70;99.90;;;10.21;100.00;97017.19;4917440;29;20558;-78
2023/04/24 04:03:03;;;;;;;2.60;2.27;;;9.60;99.90;;;10.13;100.00;97019.25;4916414;29;20914;-78
2023/04/24 04:05:33;;;;;;;3.80;2.77;;;9.50;99.90;;;10.06;100.00;97024.50;4921194;29;20475;-77
2023/04/24 04:08:04;;;;;;;4.00;2.87;;;9.50;99.90;;;10.03;100.00;97024.91;4894467;29;20593;-77
2023/04/24 04:10:34;;;;;;;4.60;2.60;;;9.40;99.90;;;10.10;100.00;97026.47;4916735;29;20935;-77
2023/04/24 04:13:02;;;;;;;3.33;2.77;;;9.50;99.90;;;10.15;100.00;97028.50;4918232;29;20473;-77
2023/04/24 04:15:32;;;;;;;3.50;2.80;;;9.50;99.90;;;10.16;100.00;97029.28;4919174;29;20471;-77
2023/04/24 04:18:02;;;;;;;3.33;2.37;;;9.50;99.90;;;10.10;100.00;97031.69;4917885;29;20833;-77
2023/04/24 04:20:31;;;;;;;3.87;2.73;;;9.50;99.90;;;10.11;100.00;97035.09;4918155;29;20472;-77
2023/04/24 04:23:00;;;;;;;3.33;2.90;;;9.50;99.90;;;9.99;100.00;97031.56;4917259;29;20467;-76
2023/04/24 04:25:32;;;;;;;3.40;2.50;;;9.40;99.90;;;9.98;100.00;97027.34;4916166;29;20561;-78
2023/04/24 04:28:02;;;;;;;2.47;2.27;;;9.40;99.90;;;10.00;100.00;97025.31;4915032;29;20552;-77
2023/04/24 04:30:32;;;;;;;2.47;2.27;;;9.40;99.90;;;9.95;100.00;97022.53;4914927;29;20471;-77
2023/04/24 04:33:02;;;;;;;3.53;2.97;;;9.40;99.90;;;9.94;100.00;97032.19;4915356;29;20465;-77
2023/04/24 04:35:32;;;;;;;4.07;2.60;;;9.30;99.90;;;9.95;100.00;97030.38;4916114;29;20469;-74
2023/04/24 04:38:01;;;;;;;5.70;3.63;;;9.30;99.90;;;9.94;100.00;97033.97;4916466;29;20714;-77
2023/04/24 04:40:34;;;;;;;2.63;2.43;;;9.30;99.90;;;9.93;100.00;97038.41;4918846;29;20474;-76
2023/04/24 04:43:04;;;;;;;2.93;2.60;;;9.20;99.90;;;9.92;100.00;97046.47;4911867;29;20463;-76
2023/04/24 04:45:34;;;;;;;6.10;3.07;;;9.20;99.90;;;9.90;100.00;97040.63;4923031;29;20474;-76
2023/04/24 04:48:04;;;;;;;6.83;3.43;;;9.20;99.90;;;9.88;100.00;97047.88;4915611;29;20490;-77
2023/04/24 04:50:34;;;;;;;15.63;3.43;;;9.20;99.90;;;9.92;100.00;97049.06;4918463;29;20541;-76
2023/04/24 04:53:04;;;;;;;3.80;3.30;;;9.20;99.90;;;9.91;100.00;97063.13;4917795;29;20916;-76
2023/04/24 04:55:35;;;;;;;4.27;3.30;;;9.20;99.90;;;9.94;100.00;97057.50;4917692;29;20558;-77
2023/04/24 04:58:05;;;;;;;4.03;3.23;;;9.20;99.90;;;9.92;100.00;97059.50;4914188;29;20507;-77
2023/04/24 05:00:35;;;;;;;11.53;3.50;;;9.20;99.90;;;9.85;100.00;97061.34;4916319;29;20527;-77
2023/04/24 05:03:05;;;;;;;4.47;3.80;;;9.20;99.90;;;9.88;100.00;97068.75;4918180;29;20502;-77
2023/04/24 05:05:48;;;;;;;3.60;3.10;;;9.20;99.90;;;9.79;100.00;97070.00;4917685;29;20474;-78
2023/04/24 05:08:18;;;;;;;7.53;3.80;;;9.20;99.90;;;9.82;100.00;97077.44;4917362;29;20470;-78
2023/04/24 05:10:56;;;;;;;7.10;3.73;;;9.20;99.90;;;9.83;100.00;97081.63;4916554;29;20911;-77
2023/04/24 05:13:26;;;;;;;6.70;3.80;;;9.20;99.90;;;9.85;100.00;97090.06;4918045;29;20462;-78
2023/04/24 05:16:08;;;;;;;5.90;4.03;;;9.20;99.90;;;9.85;100.00;97095.28;4916576;29;20468;-78
2023/04/24 05:18:38;;;;;;;5.07;3.77;;;9.30;99.90;;;9.83;100.00;97095.47;4915915;29;20509;-78
2023/04/24 05:21:07;;;;;;;8.67;4.10;;;9.30;99.90;;;9.85;100.00;97084.84;4918046;29;20858;-78
2023/04/24 05:23:36;;;;;;;6.23;4.30;;;9.20;99.90;;;9.87;100.00;97088.84;4917791;29;21351;-78
2023/04/24 05:26:08;;;;;;;6.10;3.60;;;9.20;99.90;;;9.92;100.00;97091.66;4917764;29;20470;-78
2023/04/24 05:28:38;;;;;;;5.03;3.97;;;9.20;99.90;;;9.94;100.00;97104.50;4916445;29;20974;-78
2023/04/24 05:31:08;;;;;;;5.87;4.47;;;9.20;99.90;;;9.92;100.00;97104.72;4915269;29;20470;-77
2023/04/24 05:33:37;;;;;;;5.60;4.10;;;9.20;99.90;;;9.90;100.00;97105.91;4920132;29;20982;-77
2023/04/24 05:36:09;;;;;;;4.40;3.70;;;9.20;99.90;;;9.90;100.00;97104.09;4921120;29;20937;-77
2023/04/24 05:38:40;;;;;;;9.40;3.80;;;9.30;99.90;;;9.90;100.00;97098.06;4919194;29;20562;-77
2023/04/24 05:41:11;;;;;;;4.30;3.47;;;9.30;99.90;;;9.93;100.00;97102.88;4920038;29;20462;-77
2023/04/24 05:43:39;;;;;;;5.67;3.67;;;9.20;99.90;;;9.95;100.00;97106.91;4922439;29;20471;-77
2023/04/24 05:46:10;;;;;;;4.97;2.80;;;9.30;99.90;;;9.98;100.00;97111.72;4920197;29;20953;-77
2023/04/24 05:48:39;;;;;;;4.67;4.10;;;9.30;99.90;;;9.96;100.00;97107.72;4916560;29;20476;-77
2023/04/24 05:51:12;;;;;;;3.60;2.70;;;9.30;99.90;;;9.99;100.00;97108.09;4915571;29;20991;-77
2023/04/24 05:53:42;;;;;;;4.20;2.93;;;9.30;99.90;;;9.99;100.00;97117.75;4916695;29;20765;-77
2023/04/24 05:56:12;;;;;;;9.43;4.10;;;9.30;99.90;;;9.95;100.00;97112.13;4923459;29;20466;-77
2023/04/24 05:58:43;;;;;;;7.10;4.50;;;9.30;99.90;;;9.98;100.00;97118.75;4924334;29;20593;-77
2023/04/24 06:01:11;;;;;;;8.20;3.90;;;9.30;99.90;;;10.01;100.00;97126.97;4924544;29;20578;-78
2023/04/24 06:03:42;;;;;;;4.50;3.70;;;9.40;99.90;;;10.03;100.00;97124.94;4923155;29;20467;-79
2023/04/24 06:06:12;;;;;;;5.00;3.30;;;9.40;99.90;;;10.03;100.00;97129.38;4923129;29;20857;-76
2023/04/24 06:08:43;;;;;;;6.20;4.30;;;9.40;99.90;;;9.98;100.00;97137.03;4922950;29;20482;-77
2023/04/24 06:11:14;;;;;;;3.40;2.90;;;9.40;99.90;;;10.02;100.00;97138.22;4923868;29;20462;-78
2023/04/24 06:13:44;;;;;;;5.23;3.30;;;9.40;99.90;;;9.98;100.00;97132.59;4923208;29;20494;-77
2023/04/24 06:16:13;;;;;;;9.00;3.70;;;9.40;99.90;;;9.99;100.00;97142.06;4922847;29;20458;-77
2023/04/24 06:18:43;;;;;;;7.30;3.20;;;9.40;99.90;;;9.98;100.00;97132.59;4921102;29;20499;-78
2023/04/24 06:21:13;;;;;;;3.53;2.77;;;9.40;99.90;;;10.09;100.00;97121.53;4921495;29;20486;-78
2023/04/24 06:23:43;;;;;;;3.03;2.73;;;9.50;99.90;;;10.00;100.00;97130.59;4921695;29;20542;-78
2023/04/24 06:26:13;;;;;;;5.83;2.90;;;9.40;99.90;;;9.96;100.00;97124.16;4920755;29;20459;-77
2023/04/24 06:28:42;;;;;;;4.33;2.73;;;9.40;99.90;;;10.00;100.00;97124.56;4920533;29;20998;-78
2023/04/24 06:31:13;;;;;;;7.17;4.13;;;9.50;99.90;;;10.08;100.00;97127.75;4918964;29;20561;-76
2023/04/24 06:33:44;;;;;;;8.97;6.47;;;9.50;99.90;;;10.17;100.00;97128.34;4919164;29;20496;-78
2023/04/24 06:36:13;;;;;;;3.20;2.37;;;9.60;99.90;;;10.20;100.00;97143.63;4921100;29;20454;-78
2023/04/24 06:38:42;;;;;;;3.00;2.40;;;9.70;99.90;;;10.20;100.00;97135.78;4915621;29;20509;-76
2023/04/24 06:41:15;;;;;;;8.60;2.67;;;9.70;99.90;;;10.28;100.00;97137.34;4921339;29;20499;-78
2023/04/24 06:43:45;;;;;;;5.47;2.50;;;9.70;99.90;;;10.33;100.00;97135.72;4920931;29;20498;-78
2023/04/24 06:46:16;;;;;;;2.53;2.30;;;9.80;99.90;;;10.36;100.00;97139.72;4920885;29;20545;-79
2023/04/24 06:48:46;;;;;;;18.97;9.90;;;9.90;99.90;;;10.35;100.00;97144.16;4918183;29;20553;-75
2023/04/24 06:51:17;;;;;;;3.23;2.53;;;9.80;99.90;;;10.33;100.00;97140.97;4927372;29;20999;-77
2023/04/24 06:53:48;;;;;;;2.50;2.03;;;9.80;99.90;;;10.34;100.00;97142.56;4924022;29;21032;-77
2023/04/24 06:56:20;;;;;;;2.43;2.20;;;9.80;99.90;;;10.31;100.00;97148.19;4924874;29;20541;-77
2023/04/24 06:58:49;;;;;;;2.43;2.10;;;9.80;99.90;;;10.33;100.00;97159.25;4924640;29;20490;-77
2023/04/24 07:01:20;;;;;;;3.23;2.57;;;9.80;99.90;;;10.25;100.00;97159.47;4924118;29;20550;-77
2023/04/24 07:03:49;;;;;;;6.03;2.73;;;9.70;99.90;;;10.13;100.00;97157.69;4924612;29;20475;-78
2023/04/24 07:06:21;;;;;;;4.20;2.87;;;9.70;99.90;;;10.15;100.00;97158.31;4927842;29;20471;-77
2023/04/24 07:08:50;;;;;;;4.50;2.57;;;9.70;99.90;;;10.15;100.00;97159.09;4925752;29;20816;-81
2023/04/24 07:11:21;;;;;;;5.60;2.77;;;9.60;99.90;;;10.15;100.00;97159.09;4926806;29;20582;-78
2023/04/24 07:13:51;;;;;;;2.57;2.27;;;9.70;99.90;;;10.11;100.00;97163.09;4928497;29;20483;-77
2023/04/24 07:16:20;;;;;;;4.53;2.80;;;9.60;99.90;;;10.10;100.00;97161.50;4926682;29;20879;-78
2023/04/24 07:18:51;;;;;;;3.77;2.40;;;9.70;99.90;;;10.17;100.00;97159.69;4926633;29;20506;-78
2023/04/24 07:21:21;;;;;;;4.83;3.50;;;9.60;99.90;;;10.25;100.00;97172.53;4927141;29;20578;-78
2023/04/24 07:23:51;;;;;;;3.53;2.90;;;9.70;99.90;;;10.21;100.00;97166.13;4927503;29;20553;-79
2023/04/24 07:26:22;;;;;;;3.70;2.70;;;9.70;99.90;;;10.25;100.00;97171.72;4928788;29;20549;-78
2023/04/24 07:28:53;;;;;;;5.40;2.80;;;9.60;99.90;;;10.30;100.00;97170.13;4926008;29;20476;-78
2023/04/24 07:31:21;;;;;;;3.07;2.70;;;9.80;99.90;;;10.29;100.00;97173.72;4927323;29;20557;-78
2023/04/24 07:33:52;;;;;;;2.90;2.60;;;9.70;99.90;;;10.29;100.00;97181.56;4927153;29;20506;-78
2023/04/24 07:36:21;;;;;;;3.20;2.50;;;9.70;99.90;;;10.26;100.00;97176.75;4925781;29;20472;-78
2023/04/24 07:38:51;;;;;;;3.60;3.13;;;9.80;99.90;;;10.29;100.00;97186.78;4927974;29;20505;-78
2023/04/24 07:41:23;;;;;;;2.80;2.60;;;9.70;99.90;;;10.36;100.00;97189.38;4926175;29;20471;-78
2023/04/24 07:43:53;;;;;;;2.33;2.13;;;9.80;99.90;;;10.37;100.00;97194.41;4927501;29;20498;-77
2023/04/24 07:46:24;;;;;;;5.83;3.23;;;9.80;99.90;;;10.25;100.00;97196.03;4926830;29;20470;-78
2023/04/24 07:48:54;;;;;;;3.03;2.67;;;9.80;99.90;;;10.14;100.00;97204.50;4926729;29;20494;-78
2023/04/24 07:51:41;;;;;;;4.77;3.10;;;9.70;99.90;;;10.20;100.00;97208.94;4920751;29;20465;-75
2023/04/24 07:54:11;;;;;;;8.40;5.23;;;9.70;99.90;;;10.23;100.00;97224.19;4924163;29;20462;-77
2023/04/24 07:56:42;;;;;;;3.33;2.40;;;9.70;99.90;;;10.19;100.00;97230.84;4928032;29;20920;-78
2023/04/24 07:59:13;;;;;;;3.53;2.73;;;9.70;99.90;;;10.17;100.00;97234.66;4925649;29;20903;-78
2023/04/24 08:01:42;;;;;;;3.43;2.67;;;9.70;99.90;;;10.13;100.00;97241.28;4923507;29;20866;-77
2023/04/24 08:04:13;;;;;;;3.93;3.00;;;9.60;99.90;;;10.20;100.00;97249.94;4924418;29;20490;-78
2023/04/24 08:06:43;;;;;;;3.90;3.17;;;9.70;99.90;;;10.12;100.00;97248.31;4926473;29;20471;-78
2023/04/24 08:09:13;;;;;;;7.07;3.20;;;9.60;99.90;;;10.08;100.00;97241.88;4924051;29;20467;-78
2023/04/24 08:11:44;;;;;;;3.13;2.70;;;9.60;99.90;;;10.08;100.00;97247.91;4924994;29;20467;-78
2023/04/24 08:14:15;;;;;;;3.77;2.87;;;9.60;99.90;;;10.15;100.00;97249.72;4924583;29;20969;-77
2023/04/24 08:16:45;;;;;;;3.10;2.50;;;9.60;99.90;;;10.15;100.00;97249.72;4924251;29;20941;-78
2023/04/24 08:19:14;;;;;;;4.07;2.63;;;9.60;99.90;;;10.17;100.00;97253.72;4925467;29;20556;-77
2023/04/24 08:21:44;;;;;;;6.83;2.83;;;9.60;99.90;;;10.14;100.00;97248.91;4924629;29;20478;-77
2023/04/24 08:24:13;;;;;;;4.60;2.43;;;9.60;99.90;;;10.19;100.00;97256.97;4924414;29;20497;-80
2023/04/24 08:26:44;;;;;;;3.13;2.87;;;9.70;99.90;;;10.15;100.00;97255.75;4926342;29;20518;-77
2023/04/24 08:29:14;;;;;;;3.53;2.93;;;9.60;99.90;;;10.14;100.00;97267.22;4923538;29;20478;-78
2023/04/24 08:31:43;;;;;;;3.47;2.90;;;9.60;99.90;;;10.14;100.00;97267.22;4921778;29;20470;-78
2023/04/24 08:34:12;;;;;;;4.57;3.10;;;9.60;99.90;;;10.11;100.00;97268.41;4923904;29;20568;-77
2023/04/24 08:36:42;;;;;;;5.13;2.97;;;9.70;99.90;;;10.06;100.00;97270.03;4922741;29;20473;-78
2023/04/24 08:39:16;;;;;;;3.03;2.73;;;9.60;99.90;;;10.03;100.00;97265.22;4925784;29;20594;-78
2023/04/24 08:41:54;;;;;;;5.90;2.67;;;9.50;99.90;;;10.09;100.00;97275.66;4924681;29;20514;-79
2023/04/24 08:44:24;;;;;;;6.17;2.87;;;9.60;99.90;;;10.04;100.00;97277.25;4927397;29;20466;-79
2023/04/24 08:46:55;;;;;;;6.67;3.90;;;9.70;99.90;;;10.02;100.00;97281.88;4925420;29;20469;-78
2023/04/24 08:49:27;;;;;;;2.63;2.20;;;9.50;99.90;;;10.07;100.00;97279.44;4925983;29;20466;-78
2023/04/24 08:51:59;;;;;;;3.80;2.50;;;9.50;99.90;;;10.11;100.00;97278.03;4925527;29;20977;-79
2023/04/24 08:54:30;;;;;;;3.07;2.67;;;9.60;99.90;;;10.15;100.00;97283.69;4925665;29;20550;-78
2023/04/24 08:57:03;;;;;;;9.60;3.03;;;9.60;99.90;;;10.18;100.00;97286.69;4925586;29;20478;-78
2023/04/24 08:59:33;;;;;;;3.10;2.80;;;9.60;99.90;;;10.18;100.00;97284.09;4925421;29;20498;-78
2023/04/24 09:02:05;;;;;;;3.53;2.63;;;9.70;99.90;;;10.17;100.00;97287.69;4922774;29;20517;-78
2023/04/24 09:04:36;;;;;;;4.43;2.80;;;9.70;99.90;;;10.18;100.00;97281.47;4921814;29;20470;-78
2023/04/24 09:07:07;;;;;;;13.97;8.33;;;9.70;99.90;;;10.25;100.00;97294.53;4920976;29;20472;-77
2023/04/24 09:09:39;;;;;;;3.13;2.60;;;9.70;99.90;;;10.19;100.00;97298.75;4922153;29;20597;-78
2023/04/24 09:12:10;;;;;;;4.03;2.80;;;9.70;99.90;;;10.18;100.00;97299.75;4924669;29;20553;-78
2023/04/24 09:14:44;;;;;;;4.80;3.67;;;9.60;99.90;;;10.17;100.00;97295.53;4922984;29;20467;-77
2023/04/24 09:17:14;;;;;;;6.13;3.53;;;9.70;99.90;;;10.28;100.00;97294.13;4921673;29;20474;-77
2023/04/24 09:19:45;;;;;;;6.20;2.60;;;9.70;99.90;;;10.31;100.00;97294.50;4920394;29;20530;-77
2023/04/24 09:22:14;;;;;;;4.20;2.83;;;9.70;99.90;;;10.38;100.00;97295.31;4922896;29;20471;-78
2023/04/24 09:24:46;;;;;;;3.73;3.13;;;9.80;99.90;;;10.35;100.00;97294.91;4924858;29;20565;-77
2023/04/24 09:27:18;;;;;;;6.60;3.47;;;9.80;99.90;;;10.33;100.00;97287.28;4923710;29;20469;-77
2023/04/24 09:29:55;;;;;;;8.53;3.53;;;9.80;99.90;;;10.38;100.00;97295.31;4923007;29;20712;-77
2023/04/24 09:32:27;;;;;;;6.53;3.27;;;9.90;99.90;;;10.43;100.00;97302.53;4922206;29;20471;-77
2023/04/24 09:35:12;;;;;;;3.77;2.90;;;9.90;99.90;;;10.43;100.00;97299.94;4921785;29;20474;-77
2023/04/24 09:37:44;;;;;;;2.90;2.40;;;9.90;99.90;;;10.49;100.00;97312.97;4922316;29;20581;-77
2023/04/24 09:40:18;;;;;;;6.30;3.20;;;9.90;99.90;;;10.46;100.00;97312.59;4923528;29;20510;-78
2023/04/24 09:42:55;;;;;;;10.17;3.60;;;9.90;99.90;;;10.50;100.00;97304.16;4923141;29;20481;-78
2023/04/24 09:45:29;;;;;;;3.10;2.80;;;10.00;99.90;;;10.47;100.00;97317.63;4923629;29;21073;-77
2023/04/24 09:47:58;;;;;;;3.13;2.80;;;9.90;99.90;;;10.48;100.00;97321.03;4924257;29;20470;-77
2023/04/24 09:50:28;;;;;;;4.30;2.63;;;9.90;99.90;;;10.35;100.00;97321.03;4922672;29;20961;-78
2023/04/24 09:53:04;;;;;;;5.63;3.03;;;9.70;99.90;;;10.35;100.00;97323.66;4920700;29;20557;-78
2023/04/24 09:55:34;;;;;;;3.87;3.40;;;9.70;99.90;;;10.36;100.00;97327.88;4924532;29;20520;-79
2023/04/24 09:58:05;;;;;;;3.97;2.67;;;9.80;99.90;;;10.38;100.00;97326.66;4922163;29;20490;-77
2023/04/24 10:00:34;;;;;;;3.77;2.90;;;9.80;99.90;;;10.39;100.00;97328.28;4923290;29;20595;-77
2023/04/24 10:03:06;;;;;;;3.67;3.03;;;9.90;99.90;;;10.42;100.00;97325.25;4921991;29;20467;-78
2023/04/24 10:05:39;;;;;;;3.90;2.97;;;9.90;99.90;;;10.42;100.00;97327.88;4921012;29;20474;-77
2023/04/24 10:08:12;;;;;;;3.23;2.60;;;9.90;99.90;;;10.47;100.00;97340.34;4920548;29;20892;-74
2023/04/24 10:10:46;;;;;;;6.60;3.07;;;9.90;99.90;;;10.46;100.00;97331.69;4921667;29;20517;-77
2023/04/24 10:13:18;;;;;;;3.67;2.73;;;10.00;99.90;;;10.50;100.00;97342.53;4924019;29;21025;-76
2023/04/24 10:15:49;;;;;;;6.10;3.10;;;10.00;99.90;;;10.56;100.00;97339.91;4922731;29;20527;-77
2023/04/24 10:18:21;;;;;;;4.40;3.00;;;10.00;99.90;;;10.59;100.00;97338.69;4920969;29;20497;-77
2023/04/24 10:20:55;;;;;;;5.43;3.23;;;10.10;99.90;;;10.68;100.00;97352.38;4919994;29;20664;-76
2023/04/24 10:23:26;;;;;;;3.60;2.80;;;10.20;99.90;;;10.69;100.00;97346.91;4920921;29;20514;-77
2023/04/24 10:25:57;;;;;;;3.93;3.27;;;10.20;99.90;;;10.71;100.00;97354.56;4919373;29;20494;-77
2023/04/24 10:28:29;;;;;;;4.73;3.60;;;10.20;99.90;;;10.79;100.00;97346.50;4922115;29;20485;-78
2023/04/24 10:30:59;;;;;;;4.17;3.53;;;10.30;99.90;;;10.75;100.00;97347.94;4921383;29;20462;-77
2023/04/24 10:33:30;;;;;;;5.50;3.30;;;10.30;99.90;;;10.81;100.00;97347.91;4921247;29;21023;-77